createdAt,value
2019-06-26T00:00:01.529Z,21.3
2019-06-26T00:05:01.859Z,21.2
2019-06-26T00:10:01.585Z,21.1
2019-06-26T00:15:01.866Z,21.1
2019-06-26T00:20:01.567Z,21.1
2019-06-26T00:25:02.294Z,21
2019-06-26T00:30:01.722Z,21
2019-06-26T00:35:02.582Z,21
2019-06-26T00:40:02.515Z,21
2019-06-26T00:45:01.463Z,20.9
2019-06-26T00:50:01.279Z,20.9
2019-06-26T00:55:02.204Z,20.9
2019-06-26T01:00:01.977Z,20.9
2019-06-26T01:05:01.645Z,20.8
2019-06-26T01:10:01.715Z,20.8
2019-06-26T01:15:01.629Z,20.8
2019-06-26T01:20:01.703Z,20.7
2019-06-26T01:25:01.461Z,20.7
2019-06-26T01:30:01.516Z,20.6
2019-06-26T01:35:02.140Z,20.6
2019-06-26T01:40:01.349Z,20.6
2019-06-26T01:45:02.107Z,20.5
2019-06-26T01:50:02.109Z,20.4
2019-06-26T01:55:02.229Z,20.4
2019-06-26T02:00:02.137Z,20.3
2019-06-26T02:05:01.967Z,20.2
2019-06-26T02:10:02.000Z,20.1
2019-06-26T02:15:01.885Z,20
2019-06-26T02:20:01.425Z,20
2019-06-26T02:25:01.617Z,20
2019-06-26T02:30:01.836Z,20
2019-06-26T02:35:01.848Z,19.9
2019-06-26T02:40:01.845Z,19.8
2019-06-26T02:45:01.295Z,19.9
2019-06-26T02:50:01.926Z,19.9
2019-06-26T02:55:01.199Z,19.9
2019-06-26T03:00:01.961Z,19.9
2019-06-26T03:05:01.887Z,19.8
2019-06-26T03:10:01.718Z,19.8
2019-06-26T03:15:08.621Z,19.9
2019-06-26T03:20:02.330Z,19.9
2019-06-26T03:25:02.034Z,19.9
2019-06-26T03:30:02.328Z,19.9
2019-06-26T03:35:01.493Z,20
2019-06-26T03:40:01.506Z,20
2019-06-26T03:45:01.903Z,20.1
2019-06-26T03:50:01.689Z,20.1
2019-06-26T03:55:02.093Z,20.2
2019-06-26T04:00:02.032Z,20.2
2019-06-26T04:05:01.921Z,20.3
2019-06-26T04:10:02.130Z,20.5
2019-06-26T04:15:01.734Z,20.6
2019-06-26T04:20:01.358Z,20.8
2019-06-26T04:25:01.894Z,20.9
2019-06-26T04:30:02.369Z,21.1
2019-06-26T04:35:01.632Z,21.3
2019-06-26T04:40:01.486Z,22.3
2019-06-26T04:45:01.831Z,23
2019-06-26T04:50:02.801Z,23.4
2019-06-26T04:55:02.087Z,23.7
2019-06-26T05:00:01.805Z,23.8
2019-06-26T05:05:01.708Z,23.9
2019-06-26T05:10:02.088Z,23.9
2019-06-26T05:15:01.716Z,24
2019-06-26T05:20:01.431Z,24.1
2019-06-26T05:25:01.337Z,24.1
2019-06-26T05:30:01.685Z,24.3
2019-06-26T05:35:01.624Z,24.4
2019-06-26T05:40:02.065Z,24.5
2019-06-26T05:45:02.078Z,24.6
2019-06-26T05:50:01.963Z,24.8
2019-06-26T05:55:01.277Z,25.1
2019-06-26T06:00:02.351Z,25.2
2019-06-26T06:05:01.488Z,25.5
2019-06-26T06:10:02.219Z,25.8
2019-06-26T06:15:02.135Z,26
2019-06-26T06:20:02.128Z,26.3
2019-06-26T06:25:02.927Z,26.6
2019-06-26T06:30:01.688Z,26.9
2019-06-26T06:35:01.825Z,27.2
2019-06-26T06:40:02.188Z,27.5
2019-06-26T06:45:01.544Z,27.7
2019-06-26T06:50:02.579Z,28
2019-06-26T06:55:01.974Z,28.4
2019-06-26T07:00:01.575Z,28.4
2019-06-26T07:05:01.695Z,28.6
2019-06-26T07:10:01.908Z,28.7
2019-06-26T07:15:01.576Z,29
2019-06-26T07:20:01.595Z,29.1
2019-06-26T07:25:01.381Z,29.5
2019-06-26T07:30:01.751Z,29.6
2019-06-26T07:35:01.761Z,29.7
2019-06-26T07:40:02.494Z,29.8
2019-06-26T07:45:02.197Z,29.8
2019-06-26T07:50:01.681Z,29.9
2019-06-26T07:55:02.020Z,30.4
2019-06-26T08:00:02.117Z,30.6
2019-06-26T08:05:01.499Z,30.9
2019-06-26T08:10:01.733Z,31.2
2019-06-26T08:15:01.766Z,31.5
2019-06-26T08:20:01.868Z,31.8
2019-06-26T08:25:01.704Z,32.2
2019-06-26T08:30:02.172Z,32.3
2019-06-26T08:35:01.172Z,32.5
2019-06-26T08:40:02.517Z,32.5
2019-06-26T08:45:02.052Z,32.7
2019-06-26T08:50:02.776Z,32.9
2019-06-26T08:55:01.286Z,33.2
2019-06-26T09:00:02.379Z,33.3
2019-06-26T09:05:01.811Z,33.3
2019-06-26T09:10:01.322Z,33.1
2019-06-26T09:15:01.463Z,33.2
2019-06-26T09:20:02.081Z,33.3
2019-06-26T09:25:16.739Z,33.5
2019-06-26T09:30:01.403Z,33.7
2019-06-26T09:35:02.506Z,34.1
2019-06-26T09:40:01.864Z,34.3
2019-06-26T09:45:02.016Z,34.2
2019-06-26T09:50:02.098Z,34.4
2019-06-26T09:55:02.031Z,34.7
2019-06-26T10:00:01.620Z,34.3
2019-06-26T10:05:01.362Z,34.4
2019-06-26T10:10:01.517Z,34.1
2019-06-26T10:15:01.907Z,33.7
2019-06-26T10:20:01.858Z,33.5
2019-06-26T10:25:01.551Z,33.8
2019-06-26T10:30:01.537Z,34
2019-06-26T10:35:01.444Z,34
2019-06-26T10:40:02.528Z,33.9
2019-06-26T10:45:02.122Z,33.8
2019-06-26T10:50:01.788Z,34.2
2019-06-26T10:55:01.264Z,34.5
2019-06-26T11:00:01.934Z,34.2
2019-06-26T11:05:02.126Z,34.1
2019-06-26T11:10:01.235Z,34.2
2019-06-26T11:15:01.917Z,34.3
2019-06-26T11:20:01.480Z,34.1
2019-06-26T11:25:02.003Z,34.2
2019-06-26T11:30:01.351Z,34.1
2019-06-26T11:35:01.733Z,33.8
2019-06-26T11:40:01.447Z,33.5
2019-06-26T11:45:02.094Z,33.8
2019-06-26T11:50:02.015Z,33.9
2019-06-26T11:55:03.508Z,34.1
2019-06-26T12:00:02.050Z,33.9
2019-06-26T12:05:02.176Z,33.5
2019-06-26T12:10:02.057Z,33.4
2019-06-26T12:15:02.092Z,33.3
2019-06-26T12:20:16.906Z,33.2
2019-06-26T12:25:01.675Z,33.3
2019-06-26T12:30:01.812Z,33.5
2019-06-26T12:35:01.659Z,33.3
2019-06-26T12:40:01.606Z,33.3
2019-06-26T12:45:01.964Z,33.3
2019-06-26T12:50:02.643Z,33.3
2019-06-26T12:55:02.083Z,33.3
2019-06-26T13:00:02.045Z,33
2019-06-26T13:05:01.220Z,32.8
2019-06-26T13:10:02.239Z,33
2019-06-26T13:15:01.651Z,32.9
2019-06-26T13:20:01.583Z,32.7
2019-06-26T13:25:01.214Z,32.9
2019-06-26T13:30:02.629Z,32.5
2019-06-26T13:35:01.900Z,32.6
2019-06-26T13:40:02.047Z,32.6
2019-06-26T13:45:01.647Z,32.7
2019-06-26T13:50:02.596Z,32.7
2019-06-26T13:55:01.401Z,32.6
2019-06-26T14:00:02.119Z,32.4
2019-06-26T14:05:01.262Z,32.4
2019-06-26T14:10:03.104Z,32.1
2019-06-26T14:15:01.985Z,32.2
2019-06-26T14:20:01.232Z,32.1
2019-06-26T14:25:01.272Z,32.1
2019-06-26T14:30:01.667Z,32
2019-06-26T14:35:01.754Z,31.9
2019-06-26T14:40:01.502Z,32
2019-06-26T14:45:02.055Z,32.1
2019-06-26T14:50:01.499Z,31.9
2019-06-26T14:55:01.625Z,31.6
2019-06-26T15:00:03.070Z,31.2
2019-06-26T15:05:01.420Z,30.8
2019-06-26T15:10:01.202Z,30.8
2019-06-26T15:15:01.284Z,30.9
2019-06-26T15:20:02.221Z,30.7
2019-06-26T15:25:01.586Z,30.5
2019-06-26T15:30:01.927Z,30.3
2019-06-26T15:35:02.047Z,30.1
2019-06-26T15:40:02.068Z,29.9
2019-06-26T15:45:01.862Z,29.7
2019-06-26T15:50:02.139Z,29.5
2019-06-26T15:55:01.684Z,29.4
2019-06-26T16:00:02.537Z,29.4
2019-06-26T16:05:01.625Z,29.4
2019-06-26T16:10:01.988Z,29.4
2019-06-26T16:15:01.454Z,29.2
2019-06-26T16:20:02.468Z,28.9
2019-06-26T16:25:01.467Z,28.7
2019-06-26T16:30:02.104Z,28.5
2019-06-26T16:35:02.190Z,28.3
2019-06-26T16:40:01.603Z,27.9
2019-06-26T16:45:01.724Z,27.6
2019-06-26T16:50:01.197Z,27.4
2019-06-26T16:55:01.533Z,27.3
2019-06-26T17:00:09.204Z,27.2
2019-06-26T17:05:01.264Z,26.9
2019-06-26T17:10:01.394Z,26.5
2019-06-26T17:15:04.076Z,26.2
2019-06-26T17:20:01.566Z,26
2019-06-26T17:25:02.320Z,25.7
2019-06-26T17:30:01.259Z,25.6
2019-06-26T17:35:01.987Z,25.3
2019-06-26T17:40:01.759Z,24.8
2019-06-26T17:45:01.979Z,24.5
2019-06-26T17:50:01.419Z,24
2019-06-26T17:55:01.553Z,23.4
2019-06-26T18:00:01.798Z,23.1
2019-06-26T18:05:01.747Z,22.8
2019-06-26T18:10:01.890Z,22.5
2019-06-26T18:15:01.517Z,22.2
2019-06-26T18:20:01.581Z,21.9
2019-06-26T18:25:01.380Z,21.6
2019-06-26T18:30:01.782Z,21.4
2019-06-26T18:35:02.030Z,21.4
2019-06-26T18:40:02.148Z,21.2
2019-06-26T18:45:01.668Z,21.1
2019-06-26T18:50:02.314Z,20.9
2019-06-26T18:55:02.230Z,20.6
2019-06-26T19:00:01.691Z,20.4
2019-06-26T19:05:01.551Z,20.3
2019-06-26T19:10:02.197Z,19.9
2019-06-26T19:15:02.008Z,19.7
2019-06-26T19:20:01.848Z,19.4
2019-06-26T19:25:01.708Z,19.2
2019-06-26T19:30:02.430Z,19.1
2019-06-26T19:35:07.823Z,19
2019-06-26T19:40:01.772Z,19
2019-06-26T19:45:01.335Z,18.9
2019-06-26T19:50:02.830Z,18.8
2019-06-26T19:55:01.973Z,18.6
2019-06-26T20:00:01.668Z,18.5
2019-06-26T20:05:01.443Z,18.5
2019-06-26T20:10:02.292Z,18.6
2019-06-26T20:15:01.444Z,18.6
2019-06-26T20:20:01.777Z,18.5
2019-06-26T20:25:01.547Z,18.3
2019-06-26T20:30:01.281Z,18.3
2019-06-26T20:35:01.991Z,18.3
2019-06-26T20:40:02.030Z,18.3
2019-06-26T20:45:01.721Z,18.2
2019-06-26T20:50:01.809Z,18.1
2019-06-26T20:55:02.713Z,17.9
2019-06-26T21:00:01.764Z,17.7
2019-06-26T21:05:01.619Z,17.7
2019-06-26T21:10:03.064Z,17.7
2019-06-26T21:15:02.084Z,17.5
2019-06-26T21:20:01.742Z,17.5
2019-06-26T21:25:16.801Z,17.4
2019-06-26T21:30:01.850Z,17.3
2019-06-26T21:35:01.951Z,17.2
2019-06-26T21:40:01.967Z,17.2
2019-06-26T21:45:02.249Z,17.1
2019-06-26T21:50:02.247Z,17.1
2019-06-26T21:55:01.998Z,17.1
2019-06-26T22:00:02.293Z,16.9
2019-06-26T22:05:01.588Z,16.9
2019-06-26T22:10:02.190Z,16.7
2019-06-26T22:15:02.918Z,16.6
2019-06-26T22:20:01.594Z,16.6
2019-06-26T22:25:02.456Z,16.5
2019-06-26T22:30:03.048Z,16.5
2019-06-26T22:35:01.878Z,16.4
2019-06-26T22:40:01.792Z,16.4
2019-06-26T22:45:01.418Z,16.2
2019-06-26T22:50:02.399Z,16.1
2019-06-26T22:55:01.489Z,16
2019-06-26T23:00:01.358Z,15.9
2019-06-26T23:05:02.062Z,15.9
2019-06-26T23:10:01.918Z,15.8
2019-06-26T23:15:01.747Z,15.8
2019-06-26T23:20:01.825Z,15.8
2019-06-26T23:25:01.875Z,15.7
2019-06-26T23:30:01.646Z,15.5
2019-06-26T23:35:01.543Z,15.5
2019-06-26T23:40:01.436Z,15.4
2019-06-26T23:45:01.836Z,15.3
2019-06-26T23:50:01.410Z,15.2
2019-06-26T23:55:02.389Z,15.2
